createdAt,value
2023-01-01T00:01:41.751Z,69.44
2023-01-01T00:04:12.482Z,70.36
2023-01-01T00:06:39.532Z,71.01
2023-01-01T00:09:24.726Z,71.32
2023-01-01T00:11:51.226Z,70.84
2023-01-01T00:14:17.902Z,70.76
2023-01-01T00:16:44.440Z,70.67
2023-01-01T00:19:10.935Z,70.66
2023-01-01T00:21:37.546Z,71.17
2023-01-01T00:24:04.330Z,71.20
2023-01-01T00:26:34.924Z,70.13
2023-01-01T00:29:02.104Z,70.17
2023-01-01T00:31:28.944Z,69.68
2023-01-01T00:33:56.513Z,70.42
2023-01-01T00:36:25.146Z,69.33
2023-01-01T00:38:52.452Z,69.92
2023-01-01T00:41:19.178Z,69.53
2023-01-01T00:43:45.960Z,70.39
2023-01-01T00:46:13.103Z,70.28
2023-01-01T00:48:40.462Z,69.65
2023-01-01T00:51:07.655Z,70.08
2023-01-01T00:53:34.153Z,70.49
2023-01-01T00:56:00.675Z,70.53
2023-01-01T00:58:27.367Z,70.78
2023-01-01T01:00:54.845Z,70.10
2023-01-01T01:03:28.424Z,70.21
2023-01-01T01:06:02.126Z,70.02
2023-01-01T01:08:31.334Z,69.77
2023-01-01T01:11:06.592Z,70.12
2023-01-01T01:13:33.235Z,70.26
2023-01-01T01:16:00.093Z,69.54
2023-01-01T01:18:26.921Z,68.94
2023-01-01T01:20:54.056Z,69.34
2023-01-01T01:23:21.260Z,68.92
2023-01-01T01:25:47.789Z,69.26
2023-01-01T01:28:14.304Z,68.64
2023-01-01T01:30:41.688Z,69.31
2023-01-01T01:33:08.484Z,68.74
2023-01-01T01:35:35.187Z,69.22
2023-01-01T01:38:01.815Z,69.80
2023-01-01T01:40:28.481Z,69.84
2023-01-01T01:42:54.997Z,70.40
2023-01-01T01:45:21.745Z,70.06
2023-01-01T01:47:55.811Z,70.58
2023-01-01T01:50:31.711Z,71.45
2023-01-01T01:53:07.633Z,70.78
2023-01-01T01:55:40.933Z,71.07
2023-01-01T01:58:12.131Z,70.53
2023-01-01T02:00:38.743Z,71.08
2023-01-01T02:03:12.555Z,71.24
2023-01-01T02:05:40.826Z,70.34
2023-01-01T02:08:08.545Z,70.66
2023-01-01T02:10:35.567Z,70.17
2023-01-01T02:13:02.536Z,70.74
2023-01-01T02:15:35.113Z,70.44
2023-01-01T02:18:13.680Z,70.25
2023-01-01T02:20:55.206Z,69.38
2023-01-01T02:23:46.330Z,69.73
2023-01-01T02:26:38.640Z,70.20
2023-01-01T02:29:30.638Z,69.78
2023-01-01T02:32:06.234Z,69.96
2023-01-01T02:34:40.467Z,69.87
2023-01-01T02:37:10.147Z,70.44
2023-01-01T02:39:42.215Z,70.21
2023-01-01T02:42:08.970Z,70.00
2023-01-01T02:44:40.129Z,70.38
2023-01-01T02:47:16.349Z,69.61
2023-01-01T02:50:02.668Z,70.60
2023-01-01T02:52:53.012Z,70.87
2023-01-01T02:55:25.467Z,70.47
2023-01-01T02:58:31.817Z,69.95
2023-01-01T03:01:10.004Z,69.95
2023-01-01T03:03:49.517Z,69.80
2023-01-01T03:06:37.069Z,70.55
2023-01-01T03:09:21.294Z,69.99
2023-01-01T03:12:09.851Z,70.67
2023-01-01T03:15:06.536Z,70.34
2023-01-01T03:17:35.226Z,70.04
2023-01-01T03:20:06.648Z,69.57
2023-01-01T03:25:10.300Z,69.94
2023-01-01T03:27:48.402Z,69.74
2023-01-01T03:30:17.934Z,69.75
2023-01-01T03:33:00.429Z,70.37
2023-01-01T03:35:40.161Z,69.28
2023-01-01T03:38:15.412Z,69.52
2023-01-01T03:40:44.170Z,69.82
2023-01-01T03:43:21.364Z,69.83
2023-01-01T03:45:51.266Z,70.32
2023-01-01T03:48:17.858Z,70.06
2023-01-01T03:51:04.558Z,69.66
2023-01-01T03:53:42.665Z,70.24
2023-01-01T03:56:27.506Z,71.22
2023-01-01T03:59:18.392Z,72.31
2023-01-01T04:01:58.453Z,72.84
2023-01-01T04:04:26.972Z,73.29
2023-01-01T04:06:54.241Z,72.88
2023-01-01T04:09:25.597Z,72.12
2023-01-01T04:12:02.015Z,71.45
2023-01-01T04:14:32.119Z,72.04
2023-01-01T04:16:59.046Z,71.95
2023-01-01T04:19:25.542Z,72.13
2023-01-01T04:21:52.084Z,71.63
2023-01-01T04:24:18.573Z,72.05
2023-01-01T04:26:45.099Z,73.32
2023-01-01T04:29:11.671Z,74.76
2023-01-01T04:31:38.250Z,74.58
2023-01-01T04:34:04.841Z,74.62
2023-01-01T04:36:31.364Z,74.20
2023-01-01T04:38:57.755Z,75.59
2023-01-01T04:41:24.341Z,77.08
2023-01-01T04:43:50.924Z,77.64
2023-01-01T04:46:21.855Z,77.66
2023-01-01T04:48:48.637Z,79.40
2023-01-01T04:51:16.674Z,79.38
2023-01-01T04:53:43.834Z,80.29
2023-01-01T04:56:13.459Z,80.71
2023-01-01T04:58:41.939Z,80.15
2023-01-01T05:01:14.220Z,79.17
2023-01-01T05:03:40.803Z,79.33
2023-01-01T05:06:09.647Z,78.64
2023-01-01T05:08:38.374Z,77.93
2023-01-01T05:11:11.146Z,76.55
2023-01-01T05:13:39.845Z,76.26
2023-01-01T05:16:07.996Z,77.38
2023-01-01T05:18:35.870Z,77.42
2023-01-01T05:21:13.894Z,77.72
2023-01-01T05:23:40.698Z,77.75
2023-01-01T05:26:19.094Z,77.79
2023-01-01T05:28:46.724Z,77.51
2023-01-01T05:31:17.026Z,76.32
2023-01-01T05:33:43.985Z,76.01
2023-01-01T05:36:15.695Z,75.71
2023-01-01T05:38:42.658Z,75.52
2023-01-01T05:41:12.207Z,75.65
2023-01-01T05:43:38.754Z,75.42
2023-01-01T05:46:07.401Z,74.83
2023-01-01T05:48:37.457Z,75.62
2023-01-01T05:51:06.097Z,74.24
2023-01-01T05:53:33.083Z,74.92
2023-01-01T05:56:00.142Z,74.56
2023-01-01T05:58:28.172Z,74.49
2023-01-01T06:00:54.576Z,74.43
2023-01-01T06:03:21.879Z,74.83
2023-01-01T06:05:49.417Z,73.95
2023-01-01T06:08:15.858Z,73.75
2023-01-01T06:10:42.235Z,73.19
2023-01-01T06:13:13.228Z,73.47
2023-01-01T06:15:40.056Z,72.98
2023-01-01T06:18:06.553Z,73.10
2023-01-01T06:20:33.011Z,72.34
2023-01-01T06:22:59.412Z,72.86
2023-01-01T06:25:25.820Z,72.52
2023-01-01T06:27:52.268Z,73.17
2023-01-01T06:30:18.719Z,72.98
2023-01-01T06:32:45.172Z,72.50
2023-01-01T06:35:11.641Z,72.50
2023-01-01T06:37:38.119Z,72.62
2023-01-01T06:40:05.287Z,72.53
2023-01-01T06:42:33.948Z,72.36
2023-01-01T06:45:01.053Z,72.02
2023-01-01T06:47:27.552Z,72.37
2023-01-01T06:49:53.921Z,71.82
2023-01-01T06:52:20.444Z,71.98
2023-01-01T06:54:47.053Z,71.50
2023-01-01T06:57:13.517Z,72.12
2023-01-01T06:59:40.007Z,71.98
2023-01-01T07:02:10.775Z,71.63
2023-01-01T07:04:37.721Z,71.70
2023-01-01T07:07:04.422Z,71.25
2023-01-01T07:09:31.023Z,71.45
2023-01-01T07:11:57.407Z,72.20
2023-01-01T07:14:23.832Z,71.16
2023-01-01T07:16:50.275Z,70.67
2023-01-01T07:19:16.762Z,70.91
2023-01-01T07:21:45.323Z,71.17
2023-01-01T07:24:14.052Z,70.84
2023-01-01T07:26:41.151Z,70.91
2023-01-01T07:29:11.053Z,70.57
2023-01-01T07:31:40.079Z,71.48
2023-01-01T07:34:09.463Z,70.87
2023-01-01T07:36:36.003Z,71.49
2023-01-01T07:39:02.494Z,71.71
2023-01-01T07:41:29.052Z,71.11
2023-01-01T07:43:55.476Z,71.63
2023-01-01T07:46:21.975Z,71.92
2023-01-01T07:48:48.445Z,71.54
2023-01-01T07:51:14.846Z,71.61
2023-01-01T07:53:41.251Z,71.66
2023-01-01T07:56:08.422Z,72.86
2023-01-01T07:58:34.884Z,72.70
2023-01-01T08:01:01.372Z,72.63
2023-01-01T08:03:27.965Z,72.90
2023-01-01T08:05:54.458Z,72.62
2023-01-01T08:08:20.905Z,72.92
2023-01-01T08:10:47.458Z,73.05
2023-01-01T08:13:13.905Z,73.07
2023-01-01T08:15:40.395Z,73.58
2023-01-01T08:18:06.920Z,72.93
2023-01-01T08:20:34.152Z,73.89
2023-01-01T08:23:06.774Z,74.00
2023-01-01T08:25:34.851Z,73.14
2023-01-01T08:28:01.371Z,73.50
2023-01-01T08:30:28.036Z,73.82
2023-01-01T08:32:54.789Z,73.65
2023-01-01T08:35:21.364Z,73.58
2023-01-01T08:37:47.793Z,73.74
2023-01-01T08:40:14.419Z,73.34
2023-01-01T08:42:40.888Z,73.64
2023-01-01T08:45:08.036Z,73.88
2023-01-01T08:47:34.556Z,73.78
2023-01-01T08:50:00.987Z,73.92
2023-01-01T08:52:27.440Z,73.73
2023-01-01T08:54:53.860Z,73.63
2023-01-01T08:57:20.322Z,73.67
2023-01-01T08:59:46.723Z,73.78
2023-01-01T09:02:13.363Z,74.02
2023-01-01T09:04:39.982Z,74.32
2023-01-01T09:07:06.513Z,74.01
2023-01-01T09:09:32.978Z,74.07
2023-01-01T09:12:05.861Z,73.80
2023-01-01T09:14:33.622Z,74.21
2023-01-01T09:17:00.712Z,74.60
2023-01-01T09:19:27.233Z,74.81
2023-01-01T09:21:54.378Z,75.04
2023-01-01T09:24:20.922Z,74.47
2023-01-01T09:26:47.452Z,75.14
2023-01-01T09:29:18.378Z,74.77
2023-01-01T09:31:45.257Z,74.44
2023-01-01T09:34:12.244Z,74.87
2023-01-01T09:36:38.776Z,74.91
2023-01-01T09:39:05.170Z,74.61
2023-01-01T09:41:50.592Z,74.84
2023-01-01T09:44:40.390Z,74.88
2023-01-01T09:47:17.836Z,74.28
2023-01-01T09:49:46.944Z,72.92
2023-01-01T09:52:16.320Z,73.34
2023-01-01T09:54:57.583Z,73.75
2023-01-01T09:57:31.161Z,73.15
2023-01-01T09:59:59.495Z,73.64
2023-01-01T10:02:34.881Z,72.78
2023-01-01T10:05:41.308Z,72.34
2023-01-01T10:08:23.919Z,72.39
2023-01-01T10:10:56.043Z,72.18
2023-01-01T10:13:28.740Z,73.15
2023-01-01T10:16:04.502Z,72.75
2023-01-01T10:18:37.256Z,73.50
2023-01-01T10:21:07.590Z,72.73
2023-01-01T10:23:41.754Z,72.84
2023-01-01T10:26:14.529Z,73.80
2023-01-01T10:28:45.851Z,73.67
2023-01-01T10:31:26.214Z,74.17
2023-01-01T10:33:52.747Z,74.06
2023-01-01T10:36:19.751Z,74.29
2023-01-01T10:38:48.748Z,74.35
2023-01-01T10:41:19.869Z,75.51
2023-01-01T10:43:48.835Z,75.09
2023-01-01T10:46:31.334Z,75.63
2023-01-01T10:49:12.752Z,76.40
2023-01-01T10:51:45.004Z,76.01
2023-01-01T10:54:33.903Z,75.65
2023-01-01T10:57:34.773Z,76.04
2023-01-01T11:00:20.653Z,76.19
2023-01-01T11:02:47.478Z,75.32
2023-01-01T11:05:22.305Z,75.45
2023-01-01T11:08:00.017Z,75.97
2023-01-01T11:10:26.559Z,76.28
2023-01-01T11:13:06.150Z,75.54
2023-01-01T11:15:42.288Z,75.92
2023-01-01T11:18:17.174Z,76.39
2023-01-01T11:20:44.069Z,76.85
2023-01-01T11:23:31.199Z,76.66
2023-01-01T11:26:03.191Z,77.05
2023-01-01T11:28:31.871Z,77.41
2023-01-01T11:31:14.441Z,77.04
2023-01-01T11:33:55.079Z,77.22
2023-01-01T11:36:33.756Z,78.36
2023-01-01T11:39:08.476Z,77.88
2023-01-01T11:41:47.196Z,78.75
2023-01-01T11:44:25.637Z,78.45
2023-01-01T11:46:52.464Z,78.65
2023-01-01T11:49:26.879Z,78.63
2023-01-01T11:51:53.752Z,79.69
2023-01-01T11:54:32.702Z,79.60
2023-01-01T11:57:09.628Z,79.56
2023-01-01T11:59:49.616Z,79.47
2023-01-01T12:02:24.498Z,79.60
2023-01-01T12:05:03.270Z,80.67
2023-01-01T12:07:35.005Z,80.76
2023-01-01T12:10:37.365Z,80.14
2023-01-01T12:13:11.373Z,80.67
2023-01-01T12:15:51.759Z,81.23
2023-01-01T12:18:33.335Z,80.82
2023-01-01T12:21:06.000Z,80.69
2023-01-01T12:23:32.610Z,81.09
2023-01-01T12:26:08.552Z,81.37
2023-01-01T12:28:40.888Z,80.66
2023-01-01T12:31:19.531Z,81.09
2023-01-01T12:34:16.006Z,80.92
2023-01-01T12:36:53.484Z,80.66
2023-01-01T12:39:38.444Z,80.76
2023-01-01T12:42:10.988Z,81.11
2023-01-01T12:45:00.656Z,80.96
2023-01-01T12:48:05.895Z,80.80
2023-01-01T12:50:57.317Z,79.94
2023-01-01T12:53:44.640Z,79.40
2023-01-01T12:56:23.503Z,79.89
2023-01-01T12:59:06.687Z,79.33
2023-01-01T13:01:36.206Z,78.79
2023-01-01T13:04:10.937Z,79.20
2023-01-01T13:06:47.250Z,78.28
2023-01-01T13:09:17.602Z,78.19
2023-01-01T13:11:49.576Z,78.09
2023-01-01T13:14:16.175Z,77.24
2023-01-01T13:16:50.364Z,78.35
2023-01-01T13:19:46.463Z,77.32
2023-01-01T13:22:44.108Z,77.77
2023-01-01T13:25:16.412Z,77.82
2023-01-01T13:27:59.495Z,76.31
2023-01-01T13:30:38.078Z,77.50
2023-01-01T13:33:26.794Z,76.58
2023-01-01T13:36:08.751Z,76.21
2023-01-01T13:38:48.902Z,76.43
2023-01-01T13:41:27.711Z,76.72
2023-01-01T13:44:10.381Z,76.72
2023-01-01T13:46:51.861Z,76.42
2023-01-01T13:49:24.481Z,77.07
2023-01-01T13:52:16.034Z,76.38
2023-01-01T13:55:20.181Z,77.03
2023-01-01T13:58:18.191Z,76.67
2023-01-01T14:01:07.026Z,77.47
2023-01-01T14:03:41.129Z,77.54
2023-01-01T14:06:14.896Z,76.70
2023-01-01T14:08:41.879Z,76.95
2023-01-01T14:11:21.041Z,77.25
2023-01-01T14:13:48.015Z,76.97
2023-01-01T14:16:16.079Z,77.68
2023-01-01T14:18:49.858Z,78.15
2023-01-01T14:21:20.330Z,77.47
2023-01-01T14:23:51.282Z,78.03
2023-01-01T14:26:23.055Z,78.10
2023-01-01T14:28:54.269Z,78.50
2023-01-01T14:31:25.469Z,78.69
2023-01-01T14:33:51.971Z,78.63
2023-01-01T14:36:25.560Z,79.10
2023-01-01T14:38:54.468Z,78.31
2023-01-01T14:41:32.785Z,78.70
2023-01-01T14:44:03.646Z,78.81
2023-01-01T14:46:31.099Z,79.43
2023-01-01T14:49:07.950Z,79.13
2023-01-01T14:51:38.123Z,79.89
2023-01-01T14:54:07.504Z,79.78
2023-01-01T14:56:36.955Z,80.50
2023-01-01T14:59:26.667Z,79.66
2023-01-01T15:02:04.047Z,79.50
2023-01-01T15:04:31.416Z,79.67
2023-01-01T15:07:00.348Z,80.30
2023-01-01T15:09:28.266Z,79.87
2023-01-01T15:11:56.423Z,80.46
2023-01-01T15:14:33.750Z,80.06
2023-01-01T15:17:15.376Z,80.45
2023-01-01T15:19:44.433Z,80.97
2023-01-01T15:22:17.490Z,80.97
2023-01-01T15:24:45.951Z,81.87
2023-01-01T15:27:28.179Z,81.63
2023-01-01T15:29:57.015Z,81.98
2023-01-01T15:32:35.665Z,81.31
2023-01-01T15:35:05.184Z,81.54
2023-01-01T15:37:45.464Z,81.28
2023-01-01T15:40:15.024Z,81.52
2023-01-01T15:43:11.312Z,82.09
2023-01-01T15:45:39.922Z,81.99
2023-01-01T15:48:06.663Z,82.53
2023-01-01T15:50:43.304Z,81.90
2023-01-01T15:53:18.793Z,82.16
2023-01-01T15:55:58.690Z,82.75
2023-01-01T15:58:43.027Z,83.13
2023-01-01T16:01:21.578Z,82.78
2023-01-01T16:03:50.488Z,82.51
2023-01-01T16:06:18.406Z,83.04
2023-01-01T16:08:45.652Z,83.58
2023-01-01T16:11:14.283Z,83.83
2023-01-01T16:13:41.602Z,83.58
2023-01-01T16:16:24.863Z,84.14
2023-01-01T16:18:52.049Z,83.77
2023-01-01T16:21:19.122Z,84.01
2023-01-01T16:23:45.547Z,84.14
2023-01-01T16:26:12.020Z,83.64
2023-01-01T16:28:38.448Z,84.29
2023-01-01T16:31:05.183Z,84.34
2023-01-01T16:33:31.642Z,84.19
2023-01-01T16:35:58.124Z,84.52
2023-01-01T16:38:24.642Z,84.12
2023-01-01T16:40:53.543Z,83.76
2023-01-01T16:43:19.971Z,84.08
2023-01-01T16:45:46.374Z,84.03
2023-01-01T16:48:12.870Z,83.96
2023-01-01T16:50:39.288Z,83.60
2023-01-01T16:53:09.344Z,83.88
2023-01-01T16:55:35.823Z,83.95
2023-01-01T16:58:38.733Z,84.35
2023-01-01T17:00:48.964Z,84.01
2023-01-01T17:03:15.549Z,83.50
2023-01-01T17:05:44.651Z,83.51
2023-01-01T17:08:11.905Z,83.63
2023-01-01T17:10:38.346Z,83.66
2023-01-01T17:13:04.828Z,83.37
2023-01-01T17:15:32.223Z,83.85
2023-01-01T17:17:59.420Z,83.31
2023-01-01T17:20:26.677Z,83.42
2023-01-01T17:22:53.258Z,83.38
2023-01-01T17:25:19.728Z,83.60
2023-01-01T17:27:46.187Z,83.31
2023-01-01T17:30:13.772Z,82.93
2023-01-01T17:32:40.275Z,83.35
2023-01-01T17:35:07.568Z,83.68
2023-01-01T17:37:34.518Z,83.31
2023-01-01T17:40:01.074Z,84.01
2023-01-01T17:42:27.505Z,84.50
2023-01-01T17:44:53.989Z,84.70
2023-01-01T17:47:20.397Z,86.20
2023-01-01T17:49:48.442Z,86.75
2023-01-01T17:52:14.841Z,87.42
2023-01-01T17:54:41.272Z,87.71
2023-01-01T17:57:07.647Z,88.62
2023-01-01T17:59:34.073Z,89.67
2023-01-01T18:02:00.713Z,90.07
2023-01-01T18:04:27.529Z,90.46
2023-01-01T18:06:56.700Z,91.31
2023-01-01T18:09:25.239Z,91.21
2023-01-01T18:11:51.647Z,91.73
2023-01-01T18:14:22.608Z,91.62
2023-01-01T18:16:51.492Z,91.38
2023-01-01T18:19:18.006Z,91.37
2023-01-01T18:21:44.586Z,91.31
2023-01-01T18:24:13.616Z,91.88
2023-01-01T18:26:40.283Z,92.03
2023-01-01T18:29:07.084Z,92.76
2023-01-01T18:31:34.842Z,92.93
2023-01-01T18:34:03.414Z,92.79
2023-01-01T18:36:32.120Z,93.23
2023-01-01T18:39:00.436Z,93.57
2023-01-01T18:41:39.378Z,94.53
2023-01-01T18:44:14.052Z,94.54
2023-01-01T18:46:40.487Z,94.87
2023-01-01T18:49:09.505Z,94.82
2023-01-01T18:51:36.007Z,95.63
2023-01-01T18:54:02.396Z,95.73
2023-01-01T18:56:31.447Z,95.98
2023-01-01T18:58:58.111Z,96.77
2023-01-01T19:01:25.132Z,96.35
2023-01-01T19:03:55.033Z,97.04
2023-01-01T19:06:27.705Z,97.03
2023-01-01T19:09:16.158Z,97.70
2023-01-01T19:11:42.640Z,98.22
2023-01-01T19:14:18.559Z,98.38
2023-01-01T19:16:46.834Z,98.62
2023-01-01T19:19:22.126Z,98.78
2023-01-01T19:21:52.067Z,99.08
2023-01-01T19:24:25.456Z,99.21
2023-01-01T19:27:10.724Z,99.78
2023-01-01T19:29:42.069Z,99.29
2023-01-01T19:32:08.567Z,99.55
2023-01-01T19:34:36.881Z,100.00
2023-01-01T19:37:03.345Z,99.90
2023-01-01T19:39:31.449Z,100.00
2023-01-01T19:42:03.773Z,100.00
2023-01-01T19:44:30.997Z,100.00
2023-01-01T19:46:57.698Z,100.00
2023-01-01T19:49:24.143Z,100.00
2023-01-01T19:51:50.582Z,100.00
2023-01-01T19:54:17.049Z,100.00
2023-01-01T19:56:43.585Z,100.00
2023-01-01T19:59:09.960Z,100.00
2023-01-01T20:01:36.738Z,100.00
2023-01-01T20:04:03.612Z,100.00
2023-01-01T20:06:30.509Z,100.00
2023-01-01T20:08:57.003Z,100.00
2023-01-01T20:11:23.467Z,100.00
2023-01-01T20:13:50.068Z,100.00
2023-01-01T20:16:16.616Z,100.00
2023-01-01T20:18:43.096Z,100.00
2023-01-01T20:21:28.067Z,100.00
2023-01-01T20:23:55.203Z,100.00
2023-01-01T20:26:23.658Z,100.00
2023-01-01T20:29:09.049Z,100.00
2023-01-01T20:31:35.715Z,100.00
2023-01-01T20:34:02.115Z,100.00
2023-01-01T20:36:47.159Z,100.00
2023-01-01T20:39:13.642Z,100.00
2023-01-01T20:41:40.060Z,100.00
2023-01-01T20:44:06.503Z,100.00
2023-01-01T20:46:33.029Z,100.00
2023-01-01T20:48:59.524Z,100.00
2023-01-01T20:51:26.012Z,100.00
2023-01-01T20:53:52.413Z,100.00
2023-01-01T20:56:18.957Z,100.00
2023-01-01T20:58:49.362Z,100.00
2023-01-01T21:01:18.263Z,100.00
2023-01-01T21:03:44.842Z,100.00
2023-01-01T21:06:11.288Z,100.00
2023-01-01T21:08:37.777Z,100.00
2023-01-01T21:11:04.430Z,100.00
2023-01-01T21:13:30.971Z,100.00
2023-01-01T21:16:17.403Z,100.00
2023-01-01T21:18:44.738Z,100.00
2023-01-01T21:21:33.447Z,100.00
2023-01-01T21:24:31.210Z,100.00
2023-01-01T21:27:12.920Z,100.00
2023-01-01T21:29:47.103Z,100.00
2023-01-01T21:32:31.101Z,100.00
2023-01-01T21:34:57.602Z,100.00
2023-01-01T21:37:52.678Z,100.00
2023-01-01T21:40:22.467Z,100.00
2023-01-01T21:42:49.478Z,100.00
2023-01-01T21:45:47.058Z,100.00
2023-01-01T21:48:29.609Z,100.00
2023-01-01T21:50:56.767Z,100.00
2023-01-01T21:53:28.363Z,100.00
2023-01-01T21:55:56.449Z,100.00
2023-01-01T21:59:01.029Z,100.00
2023-01-01T22:01:40.609Z,100.00
2023-01-01T22:04:10.141Z,100.00
2023-01-01T22:06:39.432Z,100.00
2023-01-01T22:09:20.918Z,100.00
2023-01-01T22:11:48.024Z,100.00
2023-01-01T22:14:21.243Z,100.00
2023-01-01T22:16:52.243Z,100.00
2023-01-01T22:19:21.913Z,100.00
2023-01-01T22:21:50.550Z,100.00
2023-01-01T22:24:29.140Z,100.00
2023-01-01T22:26:57.520Z,100.00
2023-01-01T22:29:26.159Z,100.00
2023-01-01T22:32:03.133Z,100.00
2023-01-01T22:34:29.782Z,100.00
2023-01-01T22:36:56.291Z,100.00
2023-01-01T22:39:30.292Z,100.00
2023-01-01T22:41:56.931Z,100.00
2023-01-01T22:44:25.243Z,100.00
2023-01-01T22:46:52.130Z,100.00
2023-01-01T22:49:19.743Z,100.00
2023-01-01T22:51:47.283Z,100.00
2023-01-01T22:54:13.736Z,100.00
2023-01-01T22:56:40.112Z,100.00
2023-01-01T22:59:06.554Z,100.00
2023-01-01T23:01:33.224Z,100.00
2023-01-01T23:03:59.786Z,100.00
2023-01-01T23:06:26.419Z,100.00
2023-01-01T23:20:18.071Z,100.00
2023-01-01T23:22:49.688Z,100.00
2023-01-01T23:25:18.655Z,100.00
2023-01-01T23:27:47.814Z,100.00
2023-01-01T23:30:14.423Z,100.00
2023-01-01T23:32:42.287Z,100.00
2023-01-01T23:35:09.911Z,100.00
2023-01-01T23:37:37.007Z,100.00
2023-01-01T23:40:04.131Z,100.00
2023-01-01T23:42:30.732Z,100.00
2023-01-01T23:44:57.298Z,100.00
2023-01-01T23:47:24.350Z,100.00
2023-01-01T23:49:50.882Z,100.00
2023-01-01T23:52:17.370Z,100.00
2023-01-01T23:54:43.842Z,100.00
2023-01-01T23:57:10.420Z,100.00
2023-01-01T23:59:36.930Z,100.00
